sensor_id;sensor_type;location;lat;lon;timestamp;temperature;humidity
5899;DHT22;2975;50.956;6.962;2023-02-28T00:02:15;0.70;97.50
5899;DHT22;2975;50.956;6.962;2023-02-28T00:04:43;0.60;97.70
5899;DHT22;2975;50.956;6.962;2023-02-28T00:07:09;0.60;97.80
5899;DHT22;2975;50.956;6.962;2023-02-28T00:09:35;0.60;97.90
5899;DHT22;2975;50.956;6.962;2023-02-28T00:12:00;0.60;98.00
5899;DHT22;2975;50.956;6.962;2023-02-28T00:14:35;0.50;98.20
5899;DHT22;2975;50.956;6.962;2023-02-28T00:17:01;0.60;98.10
5899;DHT22;2975;50.956;6.962;2023-02-28T00:19:26;0.60;98.30
5899;DHT22;2975;50.956;6.962;2023-02-28T00:21:52;0.50;98.20
5899;DHT22;2975;50.956;6.962;2023-02-28T00:24:18;0.40;98.50
5899;DHT22;2975;50.956;6.962;2023-02-28T00:26:43;0.40;98.80
5899;DHT22;2975;50.956;6.962;2023-02-28T00:29:10;0.40;98.80
5899;DHT22;2975;50.956;6.962;2023-02-28T00:31:35;0.40;98.80
5899;DHT22;2975;50.956;6.962;2023-02-28T00:34:01;0.40;98.80
5899;DHT22;2975;50.956;6.962;2023-02-28T00:36:26;0.40;98.80
5899;DHT22;2975;50.956;6.962;2023-02-28T00:38:52;0.40;99.10
5899;DHT22;2975;50.956;6.962;2023-02-28T00:41:18;0.40;99.10
5899;DHT22;2975;50.956;6.962;2023-02-28T00:43:43;0.40;99.00
5899;DHT22;2975;50.956;6.962;2023-02-28T00:46:09;0.50;99.00
5899;DHT22;2975;50.956;6.962;2023-02-28T00:48:35;0.50;98.90
5899;DHT22;2975;50.956;6.962;2023-02-28T00:51:01;0.40;99.00
5899;DHT22;2975;50.956;6.962;2023-02-28T00:53:27;0.40;99.20
5899;DHT22;2975;50.956;6.962;2023-02-28T00:55:53;0.50;98.90
5899;DHT22;2975;50.956;6.962;2023-02-28T00:58:19;0.40;99.10
5899;DHT22;2975;50.956;6.962;2023-02-28T01:00:44;0.40;99.10
5899;DHT22;2975;50.956;6.962;2023-02-28T01:03:17;0.40;99.00
5899;DHT22;2975;50.956;6.962;2023-02-28T01:05:43;0.40;99.20
5899;DHT22;2975;50.956;6.962;2023-02-28T01:08:09;0.30;99.30
5899;DHT22;2975;50.956;6.962;2023-02-28T01:10:35;0.40;99.50
5899;DHT22;2975;50.956;6.962;2023-02-28T01:13:02;0.40;99.30
5899;DHT22;2975;50.956;6.962;2023-02-28T01:15:28;0.40;99.30
5899;DHT22;2975;50.956;6.962;2023-02-28T01:17:54;0.40;99.20
5899;DHT22;2975;50.956;6.962;2023-02-28T01:20:19;0.40;99.30
5899;DHT22;2975;50.956;6.962;2023-02-28T01:22:45;0.40;99.10
5899;DHT22;2975;50.956;6.962;2023-02-28T01:25:12;0.40;99.40
5899;DHT22;2975;50.956;6.962;2023-02-28T01:27:37;0.40;99.50
5899;DHT22;2975;50.956;6.962;2023-02-28T01:30:05;0.40;99.50
5899;DHT22;2975;50.956;6.962;2023-02-28T01:32:31;0.40;99.20
5899;DHT22;2975;50.956;6.962;2023-02-28T01:34:57;0.40;99.10
5899;DHT22;2975;50.956;6.962;2023-02-28T01:37:22;0.40;99.30
5899;DHT22;2975;50.956;6.962;2023-02-28T01:39:48;0.30;99.20
5899;DHT22;2975;50.956;6.962;2023-02-28T01:42:14;0.30;99.40
5899;DHT22;2975;50.956;6.962;2023-02-28T01:45:06;0.30;99.60
5899;DHT22;2975;50.956;6.962;2023-02-28T01:47:41;0.20;99.70
5899;DHT22;2975;50.956;6.962;2023-02-28T01:50:13;0.20;99.70
5899;DHT22;2975;50.956;6.962;2023-02-28T01:52:40;0.30;99.60
5899;DHT22;2975;50.956;6.962;2023-02-28T01:55:07;0.20;99.60
5899;DHT22;2975;50.956;6.962;2023-02-28T01:57:38;0.10;99.80
5899;DHT22;2975;50.956;6.962;2023-02-28T02:00:09;0.10;99.80
5899;DHT22;2975;50.956;6.962;2023-02-28T02:02:36;0.20;99.80
5899;DHT22;2975;50.956;6.962;2023-02-28T02:05:12;0.20;99.60
5899;DHT22;2975;50.956;6.962;2023-02-28T02:07:41;0.20;99.70
5899;DHT22;2975;50.956;6.962;2023-02-28T02:13:08;0.10;99.90
5899;DHT22;2975;50.956;6.962;2023-02-28T02:15:53;0.10;99.90
5899;DHT22;2975;50.956;6.962;2023-02-28T02:18:33;0.10;99.90
5899;DHT22;2975;50.956;6.962;2023-02-28T02:24:08;0.10;99.60
5899;DHT22;2975;50.956;6.962;2023-02-28T02:26:55;0.10;99.90
5899;DHT22;2975;50.956;6.962;2023-02-28T02:35:23;0.00;99.90
5899;DHT22;2975;50.956;6.962;2023-02-28T02:38:11;0.00;99.90
5899;DHT22;2975;50.956;6.962;2023-02-28T02:44:02;-0.10;99.70
5899;DHT22;2975;50.956;6.962;2023-02-28T02:46:33;0.00;99.40
5899;DHT22;2975;50.956;6.962;2023-02-28T02:49:02;0.00;98.90
5899;DHT22;2975;50.956;6.962;2023-02-28T02:51:30;0.00;98.70
5899;DHT22;2975;50.956;6.962;2023-02-28T02:56:57;0.00;98.30
5899;DHT22;2975;50.956;6.962;2023-02-28T02:59:24;0.10;97.80
5899;DHT22;2975;50.956;6.962;2023-02-28T03:01:57;0.00;97.70
5899;DHT22;2975;50.956;6.962;2023-02-28T03:04:28;0.10;97.40
5899;DHT22;2975;50.956;6.962;2023-02-28T03:06:55;0.00;97.30
5899;DHT22;2975;50.956;6.962;2023-02-28T03:09:25;0.00;97.00
5899;DHT22;2975;50.956;6.962;2023-02-28T03:11:54;0.00;97.00
5899;DHT22;2975;50.956;6.962;2023-02-28T03:14:25;0.00;96.80
5899;DHT22;2975;50.956;6.962;2023-02-28T03:17:24;-0.10;97.00
5899;DHT22;2975;50.956;6.962;2023-02-28T03:20:05;-0.10;97.00
5899;DHT22;2975;50.956;6.962;2023-02-28T03:28:17;-0.10;96.60
5899;DHT22;2975;50.956;6.962;2023-02-28T03:33:26;-0.20;96.50
5899;DHT22;2975;50.956;6.962;2023-02-28T03:35:59;-0.30;96.40
5899;DHT22;2975;50.956;6.962;2023-02-28T03:38:38;-0.30;96.50
5899;DHT22;2975;50.956;6.962;2023-02-28T03:43:41;-0.30;96.40
5899;DHT22;2975;50.956;6.962;2023-02-28T03:46:11;-0.30;96.40
5899;DHT22;2975;50.956;6.962;2023-02-28T03:48:43;-0.30;96.20
5899;DHT22;2975;50.956;6.962;2023-02-28T03:51:14;-0.40;96.30
5899;DHT22;2975;50.956;6.962;2023-02-28T03:53:45;-0.40;96.50
5899;DHT22;2975;50.956;6.962;2023-02-28T03:56:22;-0.40;96.60
5899;DHT22;2975;50.956;6.962;2023-02-28T03:58:55;-0.40;96.70
5899;DHT22;2975;50.956;6.962;2023-02-28T04:01:37;-0.30;96.80
5899;DHT22;2975;50.956;6.962;2023-02-28T04:04:04;-0.30;97.10
5899;DHT22;2975;50.956;6.962;2023-02-28T04:06:32;-0.30;97.20
5899;DHT22;2975;50.956;6.962;2023-02-28T04:08:58;-0.30;97.50
5899;DHT22;2975;50.956;6.962;2023-02-28T04:11:37;-0.30;97.70
5899;DHT22;2975;50.956;6.962;2023-02-28T04:14:04;-0.40;98.10
5899;DHT22;2975;50.956;6.962;2023-02-28T04:16:31;-0.40;98.60
5899;DHT22;2975;50.956;6.962;2023-02-28T04:18:57;-0.50;99.10
5899;DHT22;2975;50.956;6.962;2023-02-28T04:21:31;-0.50;99.40
5899;DHT22;2975;50.956;6.962;2023-02-28T04:23:57;-0.40;99.60
5899;DHT22;2975;50.956;6.962;2023-02-28T04:26:28;-0.40;99.60
5899;DHT22;2975;50.956;6.962;2023-02-28T04:28:55;-0.50;99.70
5899;DHT22;2975;50.956;6.962;2023-02-28T04:31:20;-0.50;99.90
5899;DHT22;2975;50.956;6.962;2023-02-28T04:33:46;-0.50;99.90
5899;DHT22;2975;50.956;6.962;2023-02-28T04:36:12;-0.50;99.90
5899;DHT22;2975;50.956;6.962;2023-02-28T04:38:40;-0.50;99.90
5899;DHT22;2975;50.956;6.962;2023-02-28T04:41:05;-0.50;99.90
5899;DHT22;2975;50.956;6.962;2023-02-28T04:43:32;-0.60;99.90
5899;DHT22;2975;50.956;6.962;2023-02-28T04:46:00;-0.50;99.90
5899;DHT22;2975;50.956;6.962;2023-02-28T04:48:31;-0.50;99.90
5899;DHT22;2975;50.956;6.962;2023-02-28T04:51:01;-0.50;99.90
5899;DHT22;2975;50.956;6.962;2023-02-28T04:53:28;-0.50;99.90
5899;DHT22;2975;50.956;6.962;2023-02-28T04:55:54;-0.50;99.80
5899;DHT22;2975;50.956;6.962;2023-02-28T04:58:20;-0.50;99.70
5899;DHT22;2975;50.956;6.962;2023-02-28T05:00:48;-0.60;99.70
5899;DHT22;2975;50.956;6.962;2023-02-28T05:03:14;-0.40;99.30
5899;DHT22;2975;50.956;6.962;2023-02-28T05:05:39;-0.40;99.00
5899;DHT22;2975;50.956;6.962;2023-02-28T05:08:05;-0.40;98.70
5899;DHT22;2975;50.956;6.962;2023-02-28T05:10:31;-0.40;98.70
5899;DHT22;2975;50.956;6.962;2023-02-28T05:12:56;-0.50;98.80
5899;DHT22;2975;50.956;6.962;2023-02-28T05:15:22;-0.50;98.90
5899;DHT22;2975;50.956;6.962;2023-02-28T05:17:47;-0.50;98.80
5899;DHT22;2975;50.956;6.962;2023-02-28T05:20:13;-0.40;98.60
5899;DHT22;2975;50.956;6.962;2023-02-28T05:22:39;-0.40;98.40
5899;DHT22;2975;50.956;6.962;2023-02-28T05:25:05;-0.40;98.20
5899;DHT22;2975;50.956;6.962;2023-02-28T05:27:32;-0.40;98.20
5899;DHT22;2975;50.956;6.962;2023-02-28T05:29:58;-0.40;98.20
5899;DHT22;2975;50.956;6.962;2023-02-28T05:32:24;-0.50;98.30
5899;DHT22;2975;50.956;6.962;2023-02-28T05:34:50;-0.50;98.60
5899;DHT22;2975;50.956;6.962;2023-02-28T05:37:16;-0.40;98.60
5899;DHT22;2975;50.956;6.962;2023-02-28T05:39:42;-0.30;98.20
5899;DHT22;2975;50.956;6.962;2023-02-28T05:42:08;-0.30;97.80
5899;DHT22;2975;50.956;6.962;2023-02-28T05:44:35;-0.30;98.00
5899;DHT22;2975;50.956;6.962;2023-02-28T05:47:00;-0.30;97.80
5899;DHT22;2975;50.956;6.962;2023-02-28T05:49:26;-0.30;97.10
5899;DHT22;2975;50.956;6.962;2023-02-28T05:51:52;-0.30;96.70
5899;DHT22;2975;50.956;6.962;2023-02-28T05:54:17;-0.30;96.20
5899;DHT22;2975;50.956;6.962;2023-02-28T05:56:43;-0.20;96.00
5899;DHT22;2975;50.956;6.962;2023-02-28T05:59:13;-0.20;95.80
5899;DHT22;2975;50.956;6.962;2023-02-28T06:01:44;-0.10;95.80
5899;DHT22;2975;50.956;6.962;2023-02-28T06:04:17;-0.20;95.80
5899;DHT22;2975;50.956;6.962;2023-02-28T06:06:47;-0.10;95.70
5899;DHT22;2975;50.956;6.962;2023-02-28T06:09:14;0.00;94.90
5899;DHT22;2975;50.956;6.962;2023-02-28T06:11:40;0.00;94.80
5899;DHT22;2975;50.956;6.962;2023-02-28T06:14:06;0.00;94.90
5899;DHT22;2975;50.956;6.962;2023-02-28T06:16:34;-0.10;94.90
5899;DHT22;2975;50.956;6.962;2023-02-28T06:19:01;-0.20;95.20
5899;DHT22;2975;50.956;6.962;2023-02-28T06:21:28;-0.20;95.10
5899;DHT22;2975;50.956;6.962;2023-02-28T06:23:55;-0.20;95.10
5899;DHT22;2975;50.956;6.962;2023-02-28T06:26:21;-0.30;95.10
5899;DHT22;2975;50.956;6.962;2023-02-28T06:28:47;-0.30;95.20
5899;DHT22;2975;50.956;6.962;2023-02-28T06:31:16;-0.30;95.20
5899;DHT22;2975;50.956;6.962;2023-02-28T06:33:43;-0.30;95.20
5899;DHT22;2975;50.956;6.962;2023-02-28T06:36:09;-0.30;95.10
5899;DHT22;2975;50.956;6.962;2023-02-28T06:38:36;-0.30;95.20
5899;DHT22;2975;50.956;6.962;2023-02-28T06:41:03;-0.20;95.30
5899;DHT22;2975;50.956;6.962;2023-02-28T06:43:31;-0.20;95.20
5899;DHT22;2975;50.956;6.962;2023-02-28T06:45:59;-0.20;95.30
5899;DHT22;2975;50.956;6.962;2023-02-28T06:48:26;-0.10;95.40
5899;DHT22;2975;50.956;6.962;2023-02-28T06:51:00;-0.10;95.30
5899;DHT22;2975;50.956;6.962;2023-02-28T06:53:26;-0.10;95.10
5899;DHT22;2975;50.956;6.962;2023-02-28T06:55:51;-0.10;95.30
5899;DHT22;2975;50.956;6.962;2023-02-28T06:58:17;0.00;95.50
5899;DHT22;2975;50.956;6.962;2023-02-28T07:00:45;0.00;95.10
5899;DHT22;2975;50.956;6.962;2023-02-28T07:03:12;0.00;94.90
5899;DHT22;2975;50.956;6.962;2023-02-28T07:05:38;0.00;94.90
5899;DHT22;2975;50.956;6.962;2023-02-28T07:08:05;0.00;94.40
5899;DHT22;2975;50.956;6.962;2023-02-28T07:10:32;0.00;94.40
5899;DHT22;2975;50.956;6.962;2023-02-28T07:12:59;0.10;94.50
5899;DHT22;2975;50.956;6.962;2023-02-28T07:15:25;0.00;94.30
5899;DHT22;2975;50.956;6.962;2023-02-28T07:17:50;0.10;93.90
5899;DHT22;2975;50.956;6.962;2023-02-28T07:20:16;0.10;93.90
5899;DHT22;2975;50.956;6.962;2023-02-28T07:22:42;0.20;93.70
5899;DHT22;2975;50.956;6.962;2023-02-28T07:25:08;0.30;93.60
5899;DHT22;2975;50.956;6.962;2023-02-28T07:27:34;0.30;93.50
5899;DHT22;2975;50.956;6.962;2023-02-28T07:29:59;0.40;93.10
5899;DHT22;2975;50.956;6.962;2023-02-28T07:32:27;0.40;92.90
5899;DHT22;2975;50.956;6.962;2023-02-28T07:34:53;0.40;92.80
5899;DHT22;2975;50.956;6.962;2023-02-28T07:37:19;0.50;92.70
5899;DHT22;2975;50.956;6.962;2023-02-28T07:39:44;0.60;92.40
5899;DHT22;2975;50.956;6.962;2023-02-28T07:42:10;0.60;92.20
5899;DHT22;2975;50.956;6.962;2023-02-28T07:44:38;0.70;91.80
5899;DHT22;2975;50.956;6.962;2023-02-28T07:47:09;0.80;91.90
5899;DHT22;2975;50.956;6.962;2023-02-28T07:49:36;0.90;91.50
5899;DHT22;2975;50.956;6.962;2023-02-28T07:52:03;0.90;90.90
5899;DHT22;2975;50.956;6.962;2023-02-28T07:54:29;0.90;90.60
5899;DHT22;2975;50.956;6.962;2023-02-28T07:56:54;1.00;90.50
5899;DHT22;2975;50.956;6.962;2023-02-28T07:59:20;1.10;90.20
5899;DHT22;2975;50.956;6.962;2023-02-28T08:01:45;1.10;89.30
5899;DHT22;2975;50.956;6.962;2023-02-28T08:04:11;1.10;89.10
5899;DHT22;2975;50.956;6.962;2023-02-28T08:06:37;1.30;88.10
5899;DHT22;2975;50.956;6.962;2023-02-28T08:09:02;1.40;87.70
5899;DHT22;2975;50.956;6.962;2023-02-28T08:11:28;1.50;86.90
5899;DHT22;2975;50.956;6.962;2023-02-28T08:13:54;1.60;85.90
5899;DHT22;2975;50.956;6.962;2023-02-28T08:16:20;1.50;86.00
5899;DHT22;2975;50.956;6.962;2023-02-28T08:18:48;1.50;85.00
5899;DHT22;2975;50.956;6.962;2023-02-28T08:21:15;1.60;85.00
5899;DHT22;2975;50.956;6.962;2023-02-28T08:23:40;1.70;84.90
5899;DHT22;2975;50.956;6.962;2023-02-28T08:26:06;1.80;84.90
5899;DHT22;2975;50.956;6.962;2023-02-28T08:28:32;1.80;84.50
5899;DHT22;2975;50.956;6.962;2023-02-28T08:30:58;1.90;84.10
5899;DHT22;2975;50.956;6.962;2023-02-28T08:33:24;2.00;83.50
5899;DHT22;2975;50.956;6.962;2023-02-28T08:35:56;2.00;82.50
5899;DHT22;2975;50.956;6.962;2023-02-28T08:38:22;2.00;82.00
5899;DHT22;2975;50.956;6.962;2023-02-28T08:40:48;2.10;82.20
5899;DHT22;2975;50.956;6.962;2023-02-28T08:43:13;2.20;82.20
5899;DHT22;2975;50.956;6.962;2023-02-28T08:45:39;2.30;81.80
5899;DHT22;2975;50.956;6.962;2023-02-28T08:48:05;2.30;80.20
5899;DHT22;2975;50.956;6.962;2023-02-28T08:50:31;2.40;79.20
5899;DHT22;2975;50.956;6.962;2023-02-28T08:52:57;2.50;77.60
5899;DHT22;2975;50.956;6.962;2023-02-28T08:55:23;2.70;76.30
5899;DHT22;2975;50.956;6.962;2023-02-28T08:57:49;2.60;74.90
5899;DHT22;2975;50.956;6.962;2023-02-28T09:00:14;2.70;75.10
5899;DHT22;2975;50.956;6.962;2023-02-28T09:02:41;2.70;74.30
5899;DHT22;2975;50.956;6.962;2023-02-28T09:05:08;2.70;73.70
5899;DHT22;2975;50.956;6.962;2023-02-28T09:07:34;2.80;73.60
5899;DHT22;2975;50.956;6.962;2023-02-28T09:09:59;2.90;73.30
5899;DHT22;2975;50.956;6.962;2023-02-28T09:12:26;2.90;72.50
5899;DHT22;2975;50.956;6.962;2023-02-28T09:14:52;2.90;72.80
5899;DHT22;2975;50.956;6.962;2023-02-28T09:17:17;2.90;73.00
5899;DHT22;2975;50.956;6.962;2023-02-28T09:19:43;3.00;73.80
5899;DHT22;2975;50.956;6.962;2023-02-28T09:22:09;3.00;73.20
5899;DHT22;2975;50.956;6.962;2023-02-28T09:24:37;3.00;72.60
5899;DHT22;2975;50.956;6.962;2023-02-28T09:27:03;3.10;73.00
5899;DHT22;2975;50.956;6.962;2023-02-28T09:29:30;3.20;71.00
5899;DHT22;2975;50.956;6.962;2023-02-28T09:31:56;3.10;71.40
5899;DHT22;2975;50.956;6.962;2023-02-28T09:34:24;3.20;72.40
5899;DHT22;2975;50.956;6.962;2023-02-28T09:36:50;3.30;71.00
5899;DHT22;2975;50.956;6.962;2023-02-28T09:39:23;3.30;71.00
5899;DHT22;2975;50.956;6.962;2023-02-28T09:41:51;3.30;71.50
5899;DHT22;2975;50.956;6.962;2023-02-28T09:44:38;3.40;71.00
5899;DHT22;2975;50.956;6.962;2023-02-28T09:47:41;3.40;70.50
5899;DHT22;2975;50.956;6.962;2023-02-28T09:52:53;3.40;70.20
5899;DHT22;2975;50.956;6.962;2023-02-28T09:57:45;3.40;69.70
5899;DHT22;2975;50.956;6.962;2023-02-28T10:00:18;3.50;68.80
5899;DHT22;2975;50.956;6.962;2023-02-28T10:03:23;3.50;67.70
5899;DHT22;2975;50.956;6.962;2023-02-28T10:06:12;3.50;68.00
5899;DHT22;2975;50.956;6.962;2023-02-28T10:11:29;3.70;69.20
5899;DHT22;2975;50.956;6.962;2023-02-28T10:14:10;3.70;68.60
5899;DHT22;2975;50.956;6.962;2023-02-28T10:22:12;3.80;67.40
5899;DHT22;2975;50.956;6.962;2023-02-28T10:24:42;3.80;68.80
5899;DHT22;2975;50.956;6.962;2023-02-28T10:27:17;3.90;68.50
5899;DHT22;2975;50.956;6.962;2023-02-28T10:29:46;3.90;67.50
5899;DHT22;2975;50.956;6.962;2023-02-28T10:32:18;4.00;67.70
5899;DHT22;2975;50.956;6.962;2023-02-28T10:34:49;3.90;66.70
5899;DHT22;2975;50.956;6.962;2023-02-28T10:37:16;3.90;67.50
5899;DHT22;2975;50.956;6.962;2023-02-28T10:39:46;3.90;68.40
5899;DHT22;2975;50.956;6.962;2023-02-28T10:42:41;3.80;67.60
5899;DHT22;2975;50.956;6.962;2023-02-28T10:45:13;3.90;66.90
5899;DHT22;2975;50.956;6.962;2023-02-28T10:47:51;3.90;67.20
5899;DHT22;2975;50.956;6.962;2023-02-28T10:50:50;4.00;68.20
5899;DHT22;2975;50.956;6.962;2023-02-28T10:56:14;4.00;67.10
5899;DHT22;2975;50.956;6.962;2023-02-28T10:59:01;4.10;67.10
5899;DHT22;2975;50.956;6.962;2023-02-28T11:01:43;4.10;67.60
5899;DHT22;2975;50.956;6.962;2023-02-28T11:04:19;4.20;67.90
5899;DHT22;2975;50.956;6.962;2023-02-28T11:06:47;4.20;68.40
5899;DHT22;2975;50.956;6.962;2023-02-28T11:09:24;4.40;67.00
5899;DHT22;2975;50.956;6.962;2023-02-28T11:11:52;4.50;67.70
5899;DHT22;2975;50.956;6.962;2023-02-28T11:14:24;4.60;66.70
5899;DHT22;2975;50.956;6.962;2023-02-28T11:16:51;4.70;66.40
5899;DHT22;2975;50.956;6.962;2023-02-28T11:19:25;4.70;65.70
5899;DHT22;2975;50.956;6.962;2023-02-28T11:21:57;4.60;66.80
5899;DHT22;2975;50.956;6.962;2023-02-28T11:24:27;4.60;68.10
5899;DHT22;2975;50.956;6.962;2023-02-28T11:26:54;4.70;68.20
5899;DHT22;2975;50.956;6.962;2023-02-28T11:29:28;4.80;67.70
5899;DHT22;2975;50.956;6.962;2023-02-28T11:34:38;4.50;67.90
5899;DHT22;2975;50.956;6.962;2023-02-28T11:37:09;4.50;68.00
5899;DHT22;2975;50.956;6.962;2023-02-28T11:39:36;4.40;67.80
5899;DHT22;2975;50.956;6.962;2023-02-28T11:53:01;4.70;68.80
5899;DHT22;2975;50.956;6.962;2023-02-28T11:55:42;4.70;67.50
5899;DHT22;2975;50.956;6.962;2023-02-28T12:07:01;5.00;67.00
5899;DHT22;2975;50.956;6.962;2023-02-28T12:09:51;5.10;67.60
5899;DHT22;2975;50.956;6.962;2023-02-28T12:12:47;5.10;66.40
5899;DHT22;2975;50.956;6.962;2023-02-28T12:20:38;5.10;66.90
5899;DHT22;2975;50.956;6.962;2023-02-28T12:23:18;5.20;66.50
5899;DHT22;2975;50.956;6.962;2023-02-28T12:28:31;5.30;64.20
5899;DHT22;2975;50.956;6.962;2023-02-28T12:31:10;5.10;64.10
5899;DHT22;2975;50.956;6.962;2023-02-28T12:33:40;5.10;65.70
5899;DHT22;2975;50.956;6.962;2023-02-28T12:36:11;5.30;65.40
5899;DHT22;2975;50.956;6.962;2023-02-28T12:39:00;5.10;64.90
5899;DHT22;2975;50.956;6.962;2023-02-28T12:41:37;5.10;65.80
5899;DHT22;2975;50.956;6.962;2023-02-28T12:44:12;5.10;65.40
5899;DHT22;2975;50.956;6.962;2023-02-28T12:46:43;5.10;66.20
5899;DHT22;2975;50.956;6.962;2023-02-28T12:49:15;5.10;65.30
5899;DHT22;2975;50.956;6.962;2023-02-28T12:51:41;5.20;65.20
5899;DHT22;2975;50.956;6.962;2023-02-28T12:59:21;5.20;65.90
5899;DHT22;2975;50.956;6.962;2023-02-28T13:07:52;5.30;65.40
5899;DHT22;2975;50.956;6.962;2023-02-28T13:10:23;5.30;65.70
5899;DHT22;2975;50.956;6.962;2023-02-28T13:12:53;5.40;65.30
5899;DHT22;2975;50.956;6.962;2023-02-28T13:15:26;5.40;65.20
5899;DHT22;2975;50.956;6.962;2023-02-28T13:17:55;5.40;64.80
5899;DHT22;2975;50.956;6.962;2023-02-28T13:20:34;5.40;65.30
5899;DHT22;2975;50.956;6.962;2023-02-28T13:22:59;5.30;65.00
5899;DHT22;2975;50.956;6.962;2023-02-28T13:28:12;5.40;65.70
5899;DHT22;2975;50.956;6.962;2023-02-28T13:33:35;5.60;63.10
5899;DHT22;2975;50.956;6.962;2023-02-28T13:38:43;5.60;62.50
5899;DHT22;2975;50.956;6.962;2023-02-28T13:46:32;5.50;63.00
5899;DHT22;2975;50.956;6.962;2023-02-28T14:08:48;5.70;63.50
5899;DHT22;2975;50.956;6.962;2023-02-28T14:11:34;5.60;62.70
5899;DHT22;2975;50.956;6.962;2023-02-28T14:14:01;5.60;63.60
5899;DHT22;2975;50.956;6.962;2023-02-28T14:16:41;5.60;64.30
5899;DHT22;2975;50.956;6.962;2023-02-28T14:19:29;5.80;63.90
5899;DHT22;2975;50.956;6.962;2023-02-28T14:27:45;5.80;63.60
5899;DHT22;2975;50.956;6.962;2023-02-28T14:36:10;5.70;64.50
5899;DHT22;2975;50.956;6.962;2023-02-28T14:38:47;5.70;64.20
5899;DHT22;2975;50.956;6.962;2023-02-28T14:41:29;5.80;64.70
5899;DHT22;2975;50.956;6.962;2023-02-28T14:43:57;5.80;64.00
5899;DHT22;2975;50.956;6.962;2023-02-28T14:46:44;5.90;64.20
5899;DHT22;2975;50.956;6.962;2023-02-28T14:49:23;6.00;64.00
5899;DHT22;2975;50.956;6.962;2023-02-28T14:51:50;6.10;63.20
5899;DHT22;2975;50.956;6.962;2023-02-28T14:54:26;6.00;63.20
5899;DHT22;2975;50.956;6.962;2023-02-28T14:56:52;6.00;62.50
5899;DHT22;2975;50.956;6.962;2023-02-28T14:59:25;6.00;62.90
5899;DHT22;2975;50.956;6.962;2023-02-28T15:01:51;6.00;62.40
5899;DHT22;2975;50.956;6.962;2023-02-28T15:04:26;6.00;62.20
5899;DHT22;2975;50.956;6.962;2023-02-28T15:07:14;5.90;61.90
5899;DHT22;2975;50.956;6.962;2023-02-28T15:09:40;6.00;61.90
5899;DHT22;2975;50.956;6.962;2023-02-28T15:12:06;6.10;61.30
5899;DHT22;2975;50.956;6.962;2023-02-28T15:14:32;6.10;61.20
5899;DHT22;2975;50.956;6.962;2023-02-28T15:17:03;6.00;61.00
5899;DHT22;2975;50.956;6.962;2023-02-28T15:19:33;6.00;62.00
5899;DHT22;2975;50.956;6.962;2023-02-28T15:22:07;6.10;61.60
5899;DHT22;2975;50.956;6.962;2023-02-28T15:24:43;6.00;61.80
5899;DHT22;2975;50.956;6.962;2023-02-28T15:27:18;5.90;62.10
5899;DHT22;2975;50.956;6.962;2023-02-28T15:29:50;5.90;62.00
5899;DHT22;2975;50.956;6.962;2023-02-28T15:32:29;5.90;61.60
5899;DHT22;2975;50.956;6.962;2023-02-28T15:34:55;5.80;62.70
5899;DHT22;2975;50.956;6.962;2023-02-28T15:37:46;5.90;63.30
5899;DHT22;2975;50.956;6.962;2023-02-28T15:40:16;5.90;63.50
5899;DHT22;2975;50.956;6.962;2023-02-28T15:42:42;5.90;63.50
5899;DHT22;2975;50.956;6.962;2023-02-28T15:45:33;5.80;63.40
5899;DHT22;2975;50.956;6.962;2023-02-28T15:48:02;5.70;63.50
5899;DHT22;2975;50.956;6.962;2023-02-28T15:50:28;5.70;63.70
5899;DHT22;2975;50.956;6.962;2023-02-28T15:52:55;5.80;63.40
5899;DHT22;2975;50.956;6.962;2023-02-28T15:55:27;5.80;63.80
5899;DHT22;2975;50.956;6.962;2023-02-28T15:57:57;5.70;63.40
5899;DHT22;2975;50.956;6.962;2023-02-28T16:00:27;5.90;64.00
5899;DHT22;2975;50.956;6.962;2023-02-28T16:02:53;5.80;64.00
5899;DHT22;2975;50.956;6.962;2023-02-28T16:05:25;5.80;64.70
5899;DHT22;2975;50.956;6.962;2023-02-28T16:07:57;5.80;64.70
5899;DHT22;2975;50.956;6.962;2023-02-28T16:10:25;5.80;64.60
5899;DHT22;2975;50.956;6.962;2023-02-28T16:12:54;5.90;65.00
5899;DHT22;2975;50.956;6.962;2023-02-28T16:15:23;5.80;64.70
5899;DHT22;2975;50.956;6.962;2023-02-28T16:17:50;5.70;65.10
5899;DHT22;2975;50.956;6.962;2023-02-28T16:20:27;5.60;64.60
5899;DHT22;2975;50.956;6.962;2023-02-28T16:22:53;5.70;64.80
5899;DHT22;2975;50.956;6.962;2023-02-28T16:25:28;5.70;64.60
5899;DHT22;2975;50.956;6.962;2023-02-28T16:27:55;5.60;64.30
5899;DHT22;2975;50.956;6.962;2023-02-28T16:30:28;5.50;64.60
5899;DHT22;2975;50.956;6.962;2023-02-28T16:32:56;5.40;65.20
5899;DHT22;2975;50.956;6.962;2023-02-28T16:35:23;5.40;65.20
5899;DHT22;2975;50.956;6.962;2023-02-28T16:37:50;5.40;65.40
5899;DHT22;2975;50.956;6.962;2023-02-28T16:40:24;5.40;65.60
5899;DHT22;2975;50.956;6.962;2023-02-28T16:42:52;5.40;65.90
5899;DHT22;2975;50.956;6.962;2023-02-28T16:45:25;5.30;65.70
5899;DHT22;2975;50.956;6.962;2023-02-28T16:47:51;5.20;66.00
5899;DHT22;2975;50.956;6.962;2023-02-28T16:50:22;5.20;65.90
5899;DHT22;2975;50.956;6.962;2023-02-28T16:52:49;5.20;66.30
5899;DHT22;2975;50.956;6.962;2023-02-28T16:55:15;5.20;66.50
5899;DHT22;2975;50.956;6.962;2023-02-28T16:57:41;5.20;66.90
5899;DHT22;2975;50.956;6.962;2023-02-28T17:00:11;5.10;66.90
5899;DHT22;2975;50.956;6.962;2023-02-28T17:02:38;5.10;66.90
5899;DHT22;2975;50.956;6.962;2023-02-28T17:05:04;5.10;67.10
5899;DHT22;2975;50.956;6.962;2023-02-28T17:07:29;5.00;68.20
5899;DHT22;2975;50.956;6.962;2023-02-28T17:09:55;5.00;67.80
5899;DHT22;2975;50.956;6.962;2023-02-28T17:12:21;4.90;68.10
5899;DHT22;2975;50.956;6.962;2023-02-28T17:14:46;4.80;68.40
5899;DHT22;2975;50.956;6.962;2023-02-28T17:17:21;4.80;68.90
5899;DHT22;2975;50.956;6.962;2023-02-28T17:19:47;4.80;69.20
5899;DHT22;2975;50.956;6.962;2023-02-28T17:22:12;4.70;69.50
5899;DHT22;2975;50.956;6.962;2023-02-28T17:24:38;4.80;69.60
5899;DHT22;2975;50.956;6.962;2023-02-28T17:27:04;4.70;69.90
5899;DHT22;2975;50.956;6.962;2023-02-28T17:29:30;4.60;70.10
5899;DHT22;2975;50.956;6.962;2023-02-28T17:31:56;4.50;70.40
5899;DHT22;2975;50.956;6.962;2023-02-28T17:34:22;4.50;70.80
5899;DHT22;2975;50.956;6.962;2023-02-28T17:36:50;4.40;70.70
5899;DHT22;2975;50.956;6.962;2023-02-28T17:39:17;4.40;71.20
5899;DHT22;2975;50.956;6.962;2023-02-28T17:41:52;4.30;71.40
5899;DHT22;2975;50.956;6.962;2023-02-28T17:44:18;4.20;72.40
5899;DHT22;2975;50.956;6.962;2023-02-28T17:46:45;4.20;72.10
5899;DHT22;2975;50.956;6.962;2023-02-28T17:49:11;4.20;72.50
5899;DHT22;2975;50.956;6.962;2023-02-28T17:51:37;4.20;72.20
5899;DHT22;2975;50.956;6.962;2023-02-28T17:54:03;4.20;72.40
5899;DHT22;2975;50.956;6.962;2023-02-28T17:56:28;4.10;72.60
5899;DHT22;2975;50.956;6.962;2023-02-28T17:58:55;4.10;72.80
5899;DHT22;2975;50.956;6.962;2023-02-28T18:01:22;4.10;73.30
5899;DHT22;2975;50.956;6.962;2023-02-28T18:03:48;4.10;73.80
5899;DHT22;2975;50.956;6.962;2023-02-28T18:06:23;4.10;74.90
5899;DHT22;2975;50.956;6.962;2023-02-28T18:08:50;4.10;75.60
5899;DHT22;2975;50.956;6.962;2023-02-28T18:11:20;4.00;76.60
5899;DHT22;2975;50.956;6.962;2023-02-28T18:13:51;4.00;77.20
5899;DHT22;2975;50.956;6.962;2023-02-28T18:16:18;4.00;78.20
5899;DHT22;2975;50.956;6.962;2023-02-28T18:18:44;3.90;78.70
5899;DHT22;2975;50.956;6.962;2023-02-28T18:21:15;3.90;79.40
5899;DHT22;2975;50.956;6.962;2023-02-28T18:23:41;3.90;79.90
5899;DHT22;2975;50.956;6.962;2023-02-28T18:26:13;3.90;80.60
5899;DHT22;2975;50.956;6.962;2023-02-28T18:28:39;3.80;81.60
5899;DHT22;2975;50.956;6.962;2023-02-28T18:31:08;3.80;82.10
5899;DHT22;2975;50.956;6.962;2023-02-28T18:33:33;3.80;82.30
5899;DHT22;2975;50.956;6.962;2023-02-28T18:35:59;3.70;82.80
5899;DHT22;2975;50.956;6.962;2023-02-28T18:38:25;3.60;83.00
5899;DHT22;2975;50.956;6.962;2023-02-28T18:40:52;3.60;83.90
5899;DHT22;2975;50.956;6.962;2023-02-28T18:43:18;3.60;84.20